createdAt,value
2023-04-03T00:00:33.417Z,-0.96
2023-04-03T00:03:00.410Z,-1.06
2023-04-03T00:05:27.506Z,-1.18
2023-04-03T00:07:54.205Z,-1.06
2023-04-03T00:10:20.930Z,-0.96
2023-04-03T00:12:47.761Z,-0.97
2023-04-03T00:15:14.657Z,-1.20
2023-04-03T00:17:41.404Z,-1.11
2023-04-03T00:20:08.694Z,-1.00
2023-04-03T00:22:35.402Z,-0.96
2023-04-03T00:25:02.171Z,-0.92
2023-04-03T00:27:29.092Z,-0.85
2023-04-03T00:29:58.120Z,-1.07
2023-04-03T00:32:26.078Z,-0.97
2023-04-03T00:34:52.864Z,-1.00
2023-04-03T00:37:19.560Z,-0.97
2023-04-03T00:39:46.599Z,-0.90
2023-04-03T00:42:13.516Z,-0.87
2023-04-03T00:44:40.295Z,-0.85
2023-04-03T00:47:09.343Z,-0.86
2023-04-03T00:49:37.731Z,-0.95
2023-04-03T00:52:07.902Z,-1.06
2023-04-03T00:54:37.178Z,-1.14
2023-04-03T00:57:05.707Z,-1.16
2023-04-03T00:59:37.123Z,-1.29
2023-04-03T01:02:04.132Z,-1.28
2023-04-03T01:04:38.133Z,-1.32
2023-04-03T01:07:09.853Z,-1.48
2023-04-03T01:09:37.256Z,-1.65
2023-04-03T01:12:26.448Z,-1.53
2023-04-03T01:14:56.199Z,-1.49
2023-04-03T01:17:32.052Z,-1.41
2023-04-03T01:20:23.832Z,-1.34
2023-04-03T01:23:27.805Z,-1.34
2023-04-03T01:25:57.327Z,-1.48
2023-04-03T01:28:35.830Z,-1.59
2023-04-03T01:31:41.196Z,-1.61
2023-04-03T01:34:07.866Z,-1.55
2023-04-03T01:36:34.531Z,-1.54
2023-04-03T01:39:01.894Z,-1.53
2023-04-03T01:41:29.001Z,-1.56
2023-04-03T01:43:56.009Z,-1.66
2023-04-03T01:46:23.364Z,-1.69
2023-04-03T01:48:50.326Z,-1.74
2023-04-03T01:51:17.322Z,-1.75
2023-04-03T01:53:44.031Z,-1.77
2023-04-03T01:56:10.908Z,-1.90
2023-04-03T01:58:37.745Z,-2.02
2023-04-03T02:01:04.653Z,-2.05
2023-04-03T02:03:31.960Z,-1.93
2023-04-03T02:05:58.743Z,-1.85
2023-04-03T02:08:25.534Z,-1.81
2023-04-03T02:10:52.385Z,-1.81
2023-04-03T02:13:19.771Z,-1.99
2023-04-03T02:15:47.300Z,-2.00
2023-04-03T02:18:16.239Z,-1.94
2023-04-03T02:20:43.175Z,-1.93
2023-04-03T02:23:10.730Z,-2.00
2023-04-03T02:25:38.852Z,-2.09
2023-04-03T02:28:06.866Z,-2.14
2023-04-03T02:30:33.719Z,-2.22
2023-04-03T02:33:01.009Z,-2.12
2023-04-03T02:35:27.840Z,-2.01
2023-04-03T02:37:54.636Z,-1.95
2023-04-03T02:40:21.366Z,-1.93
2023-04-03T02:42:48.151Z,-1.88
2023-04-03T02:45:14.839Z,-1.84
2023-04-03T02:47:41.627Z,-1.85
2023-04-03T02:50:08.762Z,-1.98
2023-04-03T02:52:35.578Z,-2.25
2023-04-03T02:55:02.323Z,-2.27
2023-04-03T02:57:29.122Z,-2.18
2023-04-03T02:59:55.880Z,-2.16
2023-04-03T03:02:22.717Z,-2.15
2023-04-03T03:04:49.562Z,-2.16
2023-04-03T03:07:16.363Z,-2.21
2023-04-03T03:09:43.082Z,-2.19
2023-04-03T03:12:09.849Z,-2.25
2023-04-03T03:14:36.621Z,-2.39
2023-04-03T03:17:03.599Z,-2.40
2023-04-03T03:19:30.540Z,-2.48
2023-04-03T03:21:57.978Z,-2.49
2023-04-03T03:24:24.752Z,-2.39
2023-04-03T03:26:51.534Z,-2.38
2023-04-03T03:29:18.347Z,-2.37
2023-04-03T03:31:45.590Z,-2.32
2023-04-03T03:34:12.867Z,-2.29
2023-04-03T03:36:39.974Z,-2.41
2023-04-03T03:39:06.834Z,-2.43
2023-04-03T03:41:33.852Z,-2.45
2023-04-03T03:44:00.582Z,-2.67
2023-04-03T03:46:27.351Z,-2.72
2023-04-03T03:48:54.101Z,-2.62
2023-04-03T03:51:20.972Z,-2.50
2023-04-03T03:53:47.751Z,-2.38
2023-04-03T03:56:14.499Z,-2.32
2023-04-03T03:58:41.175Z,-2.34
2023-04-03T04:01:08.392Z,-2.33
2023-04-03T04:03:35.378Z,-2.36
2023-04-03T04:06:02.433Z,-2.51
2023-04-03T04:08:29.360Z,-2.45
2023-04-03T04:10:56.075Z,-2.46
2023-04-03T04:13:22.896Z,-2.71
2023-04-03T04:15:49.756Z,-2.75
2023-04-03T04:18:16.636Z,-2.72
2023-04-03T04:20:43.364Z,-2.65
2023-04-03T04:23:10.119Z,-2.59
2023-04-03T04:25:40.309Z,-2.54
2023-04-03T04:28:07.696Z,-2.60
2023-04-03T04:30:35.221Z,-2.58
2023-04-03T04:33:02.461Z,-2.80
2023-04-03T04:35:29.407Z,-2.80
2023-04-03T04:37:56.360Z,-2.80
2023-04-03T04:40:23.289Z,-2.75
2023-04-03T04:42:50.330Z,-2.73
2023-04-03T04:45:17.577Z,-2.72
2023-04-03T04:47:44.754Z,-2.77
2023-04-03T04:50:12.464Z,-2.76
2023-04-03T04:52:39.705Z,-2.73
2023-04-03T04:55:06.791Z,-2.69
2023-04-03T04:57:33.661Z,-2.59
2023-04-03T05:00:00.441Z,-2.54
2023-04-03T05:02:27.180Z,-2.56
2023-04-03T05:04:54.026Z,-2.48
2023-04-03T05:07:20.978Z,-2.44
2023-04-03T05:09:47.788Z,-2.42
2023-04-03T05:12:14.581Z,-2.33
2023-04-03T05:14:41.509Z,-2.33
2023-04-03T05:17:08.418Z,-2.36
2023-04-03T05:19:35.117Z,-2.42
2023-04-03T05:22:01.832Z,-2.59
2023-04-03T05:24:29.493Z,-2.60
2023-04-03T05:26:56.312Z,-2.58
2023-04-03T05:29:23.459Z,-2.48
2023-04-03T05:31:51.470Z,-2.27
2023-04-03T05:34:19.228Z,-2.23
2023-04-03T05:36:45.925Z,-2.21
2023-04-03T05:39:12.900Z,-2.03
2023-04-03T05:41:39.646Z,-1.90
2023-04-03T05:44:06.751Z,-1.81
2023-04-03T05:46:34.095Z,-1.68
2023-04-03T05:49:00.897Z,-1.54
2023-04-03T05:51:34.560Z,-1.43
2023-04-03T05:54:11.393Z,-1.20
2023-04-03T05:56:41.043Z,-1.12
2023-04-03T05:59:08.396Z,-1.01
2023-04-03T06:01:35.800Z,-0.87
2023-04-03T06:04:02.725Z,-0.79
2023-04-03T06:06:44.849Z,-0.69
2023-04-03T06:09:11.669Z,-0.62
2023-04-03T06:11:38.552Z,-0.28
2023-04-03T06:14:05.285Z,1.59
2023-04-03T06:16:31.974Z,3.93
2023-04-03T06:18:58.682Z,4.56
2023-04-03T06:21:25.450Z,6.40
2023-04-03T06:23:52.664Z,7.44
2023-04-03T06:26:19.561Z,7.74
2023-04-03T06:28:46.336Z,7.32
2023-04-03T06:31:13.077Z,8.11
2023-04-03T06:33:39.717Z,7.31
2023-04-03T06:36:06.825Z,8.23
2023-04-03T06:38:35.335Z,8.10
2023-04-03T06:41:05.971Z,9.48
2023-04-03T06:43:34.502Z,9.42
2023-04-03T06:46:02.162Z,8.67
2023-04-03T06:48:29.019Z,7.15
2023-04-03T06:50:55.954Z,6.98
2023-04-03T06:53:22.694Z,6.82
2023-04-03T06:55:49.633Z,6.19
2023-04-03T06:58:18.500Z,6.45
2023-04-03T07:00:46.302Z,5.91
2023-04-03T07:03:13.001Z,5.26
2023-04-03T07:05:40.098Z,5.09
2023-04-03T07:08:07.346Z,4.90
2023-04-03T07:10:34.013Z,4.71
2023-04-03T07:13:00.817Z,4.53
2023-04-03T07:15:27.450Z,4.55
2023-04-03T07:17:54.324Z,4.48
2023-04-03T07:20:21.049Z,4.36
2023-04-03T07:22:47.855Z,4.81
2023-04-03T07:25:14.583Z,5.06
2023-04-03T07:27:41.285Z,5.11
2023-04-03T07:30:08.749Z,5.15
2023-04-03T07:32:36.246Z,5.50
2023-04-03T07:35:04.012Z,5.62
2023-04-03T07:37:30.795Z,5.80
2023-04-03T07:39:59.524Z,5.90
2023-04-03T07:42:28.806Z,6.15
2023-04-03T07:44:55.536Z,6.35
2023-04-03T07:47:22.265Z,6.32
2023-04-03T07:49:49.264Z,6.69
2023-04-03T07:52:16.567Z,6.78
2023-04-03T07:54:43.438Z,6.68
2023-04-03T07:57:10.183Z,6.73
2023-04-03T07:59:36.994Z,6.91
2023-04-03T08:02:05.966Z,6.81
2023-04-03T08:04:32.897Z,6.99
2023-04-03T08:06:59.720Z,7.18
2023-04-03T08:09:26.543Z,7.27
2023-04-03T08:11:54.678Z,7.30
2023-04-03T08:14:21.914Z,7.43
2023-04-03T08:16:49.259Z,7.31
2023-04-03T08:19:25.279Z,7.38
2023-04-03T08:21:54.333Z,7.86
2023-04-03T08:24:21.306Z,7.44
2023-04-03T08:26:48.112Z,7.62
2023-04-03T08:29:14.799Z,7.59
2023-04-03T08:31:41.499Z,7.98
2023-04-03T08:34:08.213Z,7.99
2023-04-03T08:36:35.042Z,8.45
2023-04-03T08:39:02.064Z,8.20
2023-04-03T08:41:43.597Z,7.69
2023-04-03T08:44:26.979Z,8.47
2023-04-03T08:47:09.776Z,8.31
2023-04-03T08:49:48.120Z,8.40
2023-04-03T08:52:18.904Z,8.38
2023-04-03T08:55:08.499Z,8.18
2023-04-03T08:57:39.709Z,7.10
2023-04-03T09:00:18.231Z,7.66
2023-04-03T09:02:48.516Z,7.65
2023-04-03T09:05:23.926Z,8.27
2023-04-03T09:08:00.690Z,9.13
2023-04-03T09:10:36.320Z,9.05
2023-04-03T09:13:32.332Z,9.28
2023-04-03T09:16:01.558Z,9.22
2023-04-03T09:18:33.671Z,9.22
2023-04-03T09:21:20.730Z,9.64
2023-04-03T09:23:51.359Z,8.55
2023-04-03T09:26:22.425Z,8.65
2023-04-03T09:28:50.924Z,9.50
2023-04-03T09:31:21.207Z,9.63
2023-04-03T09:33:52.471Z,10.25
2023-04-03T09:36:42.277Z,10.01
2023-04-03T09:39:19.951Z,10.49
2023-04-03T09:41:59.285Z,10.36
2023-04-03T09:44:36.327Z,10.35
2023-04-03T09:47:20.477Z,10.52
2023-04-03T09:49:47.186Z,10.71
2023-04-03T09:52:25.561Z,10.43
2023-04-03T09:54:52.250Z,10.82
2023-04-03T09:57:20.239Z,9.89
2023-04-03T10:00:02.055Z,10.08
2023-04-03T10:02:39.676Z,10.90
2023-04-03T10:05:36.892Z,10.10
2023-04-03T10:08:15.526Z,10.71
2023-04-03T10:10:45.125Z,10.48
2023-04-03T10:13:22.414Z,8.91
2023-04-03T10:15:56.633Z,8.84
2023-04-03T10:18:44.488Z,8.64
2023-04-03T10:21:30.300Z,8.44
2023-04-03T10:24:29.603Z,8.26
2023-04-03T10:27:25.603Z,8.73
2023-04-03T10:30:20.995Z,8.67
2023-04-03T10:33:21.844Z,9.35
2023-04-03T10:35:54.561Z,10.36
2023-04-03T10:38:32.331Z,10.64
2023-04-03T10:41:08.254Z,10.03
2023-04-03T10:44:03.871Z,10.38
2023-04-03T10:46:43.998Z,10.39
2023-04-03T10:49:28.999Z,10.53
2023-04-03T10:52:28.709Z,10.74
2023-04-03T10:55:11.626Z,11.21
2023-04-03T10:57:39.481Z,11.13
2023-04-03T11:00:22.327Z,10.88
2023-04-03T11:03:01.916Z,10.78
2023-04-03T11:05:35.370Z,10.32
2023-04-03T11:08:34.662Z,10.58
2023-04-03T11:11:07.473Z,10.69
2023-04-03T11:14:11.750Z,10.81
2023-04-03T11:16:53.370Z,10.22
2023-04-03T11:19:29.140Z,10.27
2023-04-03T11:22:07.091Z,10.44
2023-04-03T11:24:37.246Z,10.13
2023-04-03T11:27:06.366Z,9.84
2023-04-03T11:29:38.953Z,9.93
2023-04-03T11:32:19.237Z,9.89
2023-04-03T11:34:51.045Z,10.24
2023-04-03T11:37:29.889Z,10.45
2023-04-03T11:40:04.722Z,10.08
2023-04-03T11:42:41.854Z,9.52
2023-04-03T11:45:27.570Z,8.93
2023-04-03T11:48:04.747Z,9.07
2023-04-03T11:50:41.511Z,9.16
2023-04-03T11:53:08.316Z,9.46
2023-04-03T11:55:35.091Z,9.56
2023-04-03T11:58:02.014Z,9.56
2023-04-03T12:00:48.859Z,9.47
2023-04-03T12:03:27.590Z,9.31
2023-04-03T12:06:14.695Z,9.25
2023-04-03T12:08:44.284Z,9.58
2023-04-03T12:11:14.269Z,9.69
2023-04-03T12:13:50.453Z,9.39
2023-04-03T12:16:31.802Z,9.57
2023-04-03T12:19:03.731Z,9.21
2023-04-03T12:21:30.447Z,9.30
2023-04-03T12:24:04.973Z,9.85
2023-04-03T12:26:48.066Z,9.38
2023-04-03T12:29:24.699Z,8.93
2023-04-03T12:31:58.026Z,9.04
2023-04-03T12:34:40.227Z,9.17
2023-04-03T12:37:54.167Z,9.05
2023-04-03T12:40:49.060Z,9.19
2023-04-03T12:43:59.657Z,8.80
2023-04-03T12:46:38.393Z,8.93
2023-04-03T12:49:34.210Z,9.07
2023-04-03T12:52:01.662Z,9.23
2023-04-03T12:54:40.901Z,9.14
2023-04-03T12:57:28.703Z,8.84
2023-04-03T12:59:55.900Z,8.56
2023-04-03T13:02:34.772Z,8.67
2023-04-03T13:05:09.997Z,8.66
2023-04-03T13:07:41.952Z,8.80
2023-04-03T13:10:08.853Z,8.93
2023-04-03T13:12:45.813Z,8.96
2023-04-03T13:15:20.942Z,8.94
2023-04-03T13:17:51.081Z,8.83
2023-04-03T13:20:20.833Z,8.85
2023-04-03T13:22:56.817Z,8.67
2023-04-03T13:25:27.298Z,8.75
2023-04-03T13:28:06.239Z,8.73
2023-04-03T13:30:41.382Z,8.65
2023-04-03T13:33:21.852Z,8.47
2023-04-03T13:35:55.094Z,8.53
2023-04-03T13:38:32.301Z,8.71
2023-04-03T13:41:01.972Z,8.50
2023-04-03T13:43:31.405Z,8.28
2023-04-03T13:46:23.441Z,8.41
2023-04-03T13:48:53.163Z,8.58
2023-04-03T13:51:23.894Z,8.53
2023-04-03T13:53:56.869Z,8.64
2023-04-03T13:56:34.200Z,8.51
2023-04-03T13:59:17.052Z,8.72
2023-04-03T14:01:54.976Z,8.77
2023-04-03T14:04:29.170Z,8.64
2023-04-03T14:06:56.922Z,8.78
2023-04-03T14:09:25.794Z,8.82
2023-04-03T14:11:56.684Z,8.51
2023-04-03T14:14:32.509Z,8.49
2023-04-03T14:17:03.281Z,8.38
2023-04-03T14:19:34.306Z,8.21
2023-04-03T14:22:02.424Z,8.18
2023-04-03T14:24:29.200Z,7.96
2023-04-03T14:26:56.119Z,7.85
2023-04-03T14:29:23.494Z,8.20
2023-04-03T14:31:57.696Z,7.98
2023-04-03T14:34:27.314Z,7.88
2023-04-03T14:36:54.796Z,8.07
2023-04-03T14:39:21.588Z,7.93
2023-04-03T14:41:48.417Z,7.77
2023-04-03T14:44:15.452Z,7.91
2023-04-03T14:46:56.235Z,8.20
2023-04-03T14:49:27.674Z,7.94
2023-04-03T14:51:54.768Z,8.01
2023-04-03T14:54:29.062Z,8.24
2023-04-03T14:56:58.254Z,8.02
2023-04-03T14:59:26.090Z,8.31
2023-04-03T15:01:52.972Z,8.36
2023-04-03T15:04:21.876Z,8.48
2023-04-03T15:06:49.892Z,8.04
2023-04-03T15:09:26.027Z,7.91
2023-04-03T15:11:54.648Z,7.70
2023-04-03T15:14:35.362Z,7.81
2023-04-03T15:17:05.969Z,7.97
2023-04-03T15:19:40.523Z,7.95
2023-04-03T15:22:07.963Z,7.86
2023-04-03T15:24:34.690Z,8.02
2023-04-03T15:27:02.251Z,7.88
2023-04-03T15:29:29.108Z,7.63
2023-04-03T15:31:56.035Z,7.54
2023-04-03T15:34:23.248Z,7.52
2023-04-03T15:36:53.706Z,7.67
2023-04-03T15:39:21.637Z,7.63
2023-04-03T15:41:48.521Z,7.66
2023-04-03T15:44:18.531Z,7.64
2023-04-03T15:46:46.825Z,7.47
2023-04-03T15:49:14.062Z,7.50
2023-04-03T15:51:40.762Z,7.61
2023-04-03T15:54:07.772Z,7.63
2023-04-03T15:56:34.536Z,7.61
2023-04-03T15:59:01.634Z,7.54
2023-04-03T16:01:28.767Z,7.44
2023-04-03T16:03:55.743Z,7.35
2023-04-03T16:06:22.652Z,7.40
2023-04-03T16:08:50.511Z,7.42
2023-04-03T16:11:17.217Z,7.26
2023-04-03T16:13:44.294Z,7.21
2023-04-03T16:16:11.204Z,7.16
2023-04-03T16:18:38.106Z,6.98
2023-04-03T16:21:07.284Z,7.02
2023-04-03T16:23:34.064Z,6.97
2023-04-03T16:26:00.821Z,6.84
2023-04-03T16:28:27.543Z,6.79
2023-04-03T16:30:54.361Z,6.92
2023-04-03T16:33:22.929Z,6.84
2023-04-03T16:35:51.392Z,6.79
2023-04-03T16:38:19.845Z,6.74
2023-04-03T16:40:47.681Z,6.77
2023-04-03T16:43:14.502Z,6.68
2023-04-03T16:45:41.574Z,6.46
2023-04-03T16:48:08.666Z,6.33
2023-04-03T16:50:35.838Z,6.47
2023-04-03T16:53:04.071Z,6.54
2023-04-03T16:55:31.045Z,6.27
2023-04-03T16:58:04.126Z,6.54
2023-04-03T17:00:38.200Z,6.61
2023-04-03T17:03:07.808Z,6.65
2023-04-03T17:05:34.980Z,6.41
2023-04-03T17:08:02.925Z,6.42
2023-04-03T17:10:30.375Z,6.29
2023-04-03T17:12:57.654Z,6.19
2023-04-03T17:15:25.689Z,6.29
2023-04-03T17:17:57.782Z,6.39
2023-04-03T17:20:27.714Z,6.17
2023-04-03T17:22:56.491Z,6.13
2023-04-03T17:25:24.106Z,6.14
2023-04-03T17:27:52.102Z,6.13
2023-04-03T17:30:19.032Z,5.71
2023-04-03T17:32:45.771Z,5.85
2023-04-03T17:35:12.602Z,5.86
2023-04-03T17:37:39.861Z,5.90
2023-04-03T17:40:11.274Z,5.63
2023-04-03T17:42:38.663Z,5.55
2023-04-03T17:45:15.686Z,5.35
2023-04-03T17:47:55.537Z,5.28
2023-04-03T17:50:40.460Z,5.13
2023-04-03T17:53:44.814Z,5.09
2023-04-03T17:56:38.808Z,4.88
2023-04-03T17:59:47.203Z,4.63
2023-04-03T18:02:47.779Z,4.44
2023-04-03T18:08:22.465Z,4.30
2023-04-03T18:11:20.040Z,4.29
2023-04-03T18:17:39.442Z,4.07
2023-04-03T18:20:23.056Z,4.03
2023-04-03T18:23:02.130Z,3.96
2023-04-03T18:26:03.907Z,3.97
2023-04-03T18:28:53.170Z,3.85
2023-04-03T18:31:42.058Z,3.76
2023-04-03T18:34:34.528Z,3.72
2023-04-03T18:37:16.548Z,3.66
2023-04-03T18:46:18.783Z,3.44
2023-04-03T18:49:23.089Z,3.35
2023-04-03T18:55:03.901Z,3.17
2023-04-03T18:57:30.650Z,3.07
2023-04-03T18:59:58.091Z,3.00
2023-04-03T19:02:26.213Z,2.92
2023-04-03T19:04:53.977Z,2.83
2023-04-03T19:07:20.728Z,2.77
2023-04-03T19:09:47.564Z,2.73
2023-04-03T19:12:14.354Z,2.67
2023-04-03T19:14:41.166Z,2.59
2023-04-03T19:17:09.022Z,2.45
2023-04-03T19:19:35.767Z,2.22
2023-04-03T19:22:02.631Z,2.25
2023-04-03T19:24:30.332Z,2.25
2023-04-03T19:26:57.297Z,2.23
2023-04-03T19:29:23.944Z,2.20
2023-04-03T19:31:50.794Z,1.91
2023-04-03T19:34:17.513Z,1.86
2023-04-03T19:36:45.419Z,1.78
2023-04-03T19:39:15.733Z,1.83
2023-04-03T19:41:45.046Z,1.80
2023-04-03T19:44:14.110Z,1.50
2023-04-03T19:46:40.910Z,1.39
2023-04-03T19:49:18.384Z,1.54
2023-04-03T19:51:45.073Z,1.62
2023-04-03T19:54:12.050Z,1.68
2023-04-03T19:56:39.202Z,1.66
2023-04-03T19:59:06.156Z,1.40
2023-04-03T20:01:34.706Z,1.38
2023-04-03T20:04:02.079Z,1.42
2023-04-03T20:06:28.970Z,1.47
2023-04-03T20:08:55.873Z,1.39
2023-04-03T20:11:23.795Z,1.39
2023-04-03T20:13:51.996Z,1.42
2023-04-03T20:16:22.310Z,1.55
2023-04-03T20:18:51.074Z,1.83
2023-04-03T20:21:19.594Z,1.72
2023-04-03T20:23:46.402Z,1.67
2023-04-03T20:26:23.240Z,1.70
2023-04-03T20:28:59.516Z,1.59
2023-04-03T20:31:28.176Z,1.62
2023-04-03T20:33:55.112Z,1.52
2023-04-03T20:36:23.535Z,1.39
2023-04-03T20:38:52.607Z,1.22
2023-04-03T20:41:19.458Z,1.21
2023-04-03T20:43:47.841Z,1.22
2023-04-03T20:46:19.570Z,1.17
2023-04-03T20:48:48.035Z,1.20
2023-04-03T20:51:21.117Z,1.11
2023-04-03T20:53:48.646Z,1.10
2023-04-03T20:56:17.763Z,1.07
2023-04-03T20:58:46.157Z,1.08
2023-04-03T21:01:22.834Z,0.91
2023-04-03T21:03:52.500Z,0.94
2023-04-03T21:06:57.042Z,0.90
2023-04-03T21:10:01.525Z,0.84
2023-04-03T21:13:06.480Z,0.81
2023-04-03T21:16:06.523Z,0.76
2023-04-03T21:18:37.164Z,0.76
2023-04-03T21:21:04.862Z,0.74
2023-04-03T21:23:32.889Z,0.71
2023-04-03T21:26:00.730Z,0.73
2023-04-03T21:28:27.556Z,0.62
2023-04-03T21:30:54.345Z,0.62
2023-04-03T21:33:21.239Z,0.62
2023-04-03T21:35:48.596Z,0.62
2023-04-03T21:38:15.604Z,0.61
2023-04-03T21:40:46.568Z,0.56
2023-04-03T21:43:13.555Z,0.41
2023-04-03T21:45:40.788Z,0.37
2023-04-03T21:48:10.196Z,0.47
2023-04-03T21:50:37.255Z,0.45
2023-04-03T21:53:04.048Z,0.34
2023-04-03T21:55:30.738Z,0.24
2023-04-03T21:57:58.124Z,0.14
2023-04-03T22:00:25.072Z,0.14
2023-04-03T22:03:00.510Z,0.18
2023-04-03T22:05:35.976Z,0.23
2023-04-03T22:08:04.196Z,0.32
2023-04-03T22:10:34.037Z,0.32
2023-04-03T22:13:01.102Z,0.35
2023-04-03T22:15:27.781Z,0.20
2023-04-03T22:17:54.515Z,-0.08
2023-04-03T22:20:21.341Z,-0.23
2023-04-03T22:22:50.622Z,-0.11
2023-04-03T22:25:17.321Z,-0.03
2023-04-03T22:27:44.050Z,-0.03
2023-04-03T22:30:11.315Z,-0.14
2023-04-03T22:32:38.143Z,-0.07
2023-04-03T22:35:05.321Z,-0.03
2023-04-03T22:37:31.988Z,-0.01
2023-04-03T22:39:58.677Z,-0.01
2023-04-03T22:42:25.463Z,-0.01
2023-04-03T22:44:53.237Z,0.00
2023-04-03T22:47:20.084Z,0.02
2023-04-03T22:49:46.804Z,0.05
2023-04-03T22:52:13.439Z,0.01
2023-04-03T22:54:40.402Z,-0.48
2023-04-03T22:57:07.147Z,-0.68
2023-04-03T22:59:33.779Z,-0.73
2023-04-03T23:02:00.482Z,-0.56
2023-04-03T23:04:27.215Z,-0.42
2023-04-03T23:06:56.387Z,-0.36
2023-04-03T23:09:23.455Z,-0.29
2023-04-03T23:11:50.373Z,-0.25
2023-04-03T23:14:17.078Z,-0.26
2023-04-03T23:16:47.439Z,-0.30
2023-04-03T23:19:14.089Z,-0.63
2023-04-03T23:21:40.693Z,-0.70
2023-04-03T23:24:08.480Z,-0.74
2023-04-03T23:26:35.156Z,-0.73
2023-04-03T23:29:02.106Z,-0.90
2023-04-03T23:31:28.810Z,-0.94
2023-04-03T23:33:55.558Z,-0.81
2023-04-03T23:36:22.542Z,-0.81
2023-04-03T23:38:49.232Z,-0.91
2023-04-03T23:41:16.142Z,-0.89
2023-04-03T23:43:43.280Z,-0.80
2023-04-03T23:46:10.088Z,-0.70
2023-04-03T23:48:37.029Z,-0.73
2023-04-03T23:51:03.999Z,-0.84
2023-04-03T23:53:30.731Z,-0.95
2023-04-03T23:55:57.810Z,-0.99
2023-04-03T23:58:24.548Z,-0.97
